Time;durP1;ratioP1;P1;durP2;ratioP2;P2;SDS_P1;SDS_P2;PMS_P1;PMS_P2;Temp;Humidity;BMP_temperature;BMP_pressure;BME280_temperature;BME280_humidity;BME280_pressure;Samples;Min_cycle;Max_cycle;Signal;HPM_P1;HPM_P2
2022/04/08 00:01:44;;;;;;;1.23;0.10;;;24.30;38.00;;;;;;5096765;28;20070;-58
2022/04/08 00:04:11;;;;;;;0.93;0.10;;;24.30;37.90;;;;;;5086923;28;20085;-59
2022/04/08 00:06:38;;;;;;;0.22;0.03;;;24.30;37.90;;;;;;5096924;28;20541;-56
2022/04/08 00:09:07;;;;;;;0.47;0.00;;;24.30;37.80;;;;;;5099413;28;20035;-59
2022/04/08 00:11:34;;;;;;;0.57;0.10;;;24.40;37.80;;;;;;5098405;28;20450;-60
2022/04/08 00:14:01;;;;;;;2.00;0.10;;;24.40;37.70;;;;;;5101365;28;20050;-61
2022/04/08 00:16:29;;;;;;;1.25;0.00;;;24.30;37.60;;;;;;5097932;28;20419;-58
2022/04/08 00:18:57;;;;;;;0.73;0.10;;;24.30;37.60;;;;;;5095819;28;20423;-58
2022/04/08 00:21:25;;;;;;;0.75;0.03;;;24.40;37.70;;;;;;5099046;28;20131;-54
2022/04/08 00:23:53;;;;;;;0.22;0.10;;;24.30;37.60;;;;;;5100742;28;20039;-58
2022/04/08 00:26:21;;;;;;;1.52;0.10;;;24.40;37.60;;;;;;5095417;28;20067;-62
2022/04/08 00:28:49;;;;;;;0.63;0.10;;;24.40;37.60;;;;;;5100417;28;20812;-64
2022/04/08 00:31:16;;;;;;;2.17;0.05;;;24.40;37.60;;;;;;5102577;28;20221;-56
2022/04/08 00:33:43;;;;;;;1.35;0.10;;;24.40;37.50;;;;;;5099753;28;20142;-58
2022/04/08 00:36:10;;;;;;;3.83;0.10;;;24.40;37.60;;;;;;5093675;28;20396;-50
2022/04/08 00:38:37;;;;;;;0.50;0.00;;;24.30;37.40;;;;;;5093159;28;20044;-59
2022/04/08 00:41:04;;;;;;;0.25;0.00;;;24.30;37.60;;;;;;5099448;28;20107;-63
2022/04/08 00:43:37;;;;;;;5.68;0.38;;;24.20;37.60;;;;;;5095803;28;20044;-61
2022/04/08 00:46:07;;;;;;;0.65;0.10;;;24.10;37.80;;;;;;5101805;28;20039;-63
2022/04/08 00:48:36;;;;;;;2.97;0.25;;;24.10;37.80;;;;;;5097455;28;20071;-62
2022/04/08 00:51:07;;;;;;;0.50;0.10;;;24.10;37.90;;;;;;5098703;28;20051;-59
2022/04/08 00:53:36;;;;;;;2.35;0.10;;;24.10;37.90;;;;;;5096849;28;20055;-62
2022/04/08 00:56:05;;;;;;;1.63;0.10;;;24.00;37.80;;;;;;5100603;28;20112;-55
2022/04/08 00:58:32;;;;;;;2.92;0.20;;;24.00;37.90;;;;;;5100169;28;20116;-66
2022/04/08 01:01:01;;;;;;;2.33;0.30;;;23.90;37.90;;;;;;5098163;28;20079;-63
2022/04/08 01:03:28;;;;;;;10.80;0.98;;;23.90;38.00;;;;;;5099579;28;20552;-64
2022/04/08 01:05:55;;;;;;;13.02;1.65;;;23.80;38.10;;;;;;5099601;28;20461;-64
2022/04/08 01:08:23;;;;;;;23.17;1.88;;;23.80;38.30;;;;;;5095591;28;20039;-63
2022/04/08 01:10:50;;;;;;;18.98;2.10;;;23.80;38.40;;;;;;5097085;28;20050;-57
2022/04/08 01:13:18;;;;;;;10.68;1.50;;;23.80;38.50;;;;;;5099522;28;20051;-53
2022/04/08 01:15:45;;;;;;;17.55;0.80;;;23.80;38.60;;;;;;5098751;28;20780;-57
2022/04/08 01:18:14;;;;;;;12.60;1.85;;;23.80;38.60;;;;;;5092958;28;20054;-56
2022/04/08 01:20:41;;;;;;;18.48;2.42;;;23.80;38.60;;;;;;5098974;28;20085;-57
2022/04/08 01:23:09;;;;;;;19.13;0.93;;;23.80;38.70;;;;;;5097881;28;20039;-56
2022/04/08 01:25:37;;;;;;;15.85;1.65;;;23.80;38.70;;;;;;5100403;28;20713;-58
2022/04/08 01:28:05;;;;;;;19.70;2.13;;;23.80;38.70;;;;;;5098657;27;20507;-54
2022/04/08 01:30:32;;;;;;;12.05;0.95;;;23.80;38.80;;;;;;5103776;27;20124;-60
2022/04/08 01:32:59;;;;;;;13.60;1.20;;;23.80;38.80;;;;;;5079475;28;20040;-60
2022/04/08 01:35:26;;;;;;;15.80;1.23;;;23.70;38.70;;;;;;5098369;28;20566;-59
2022/04/08 01:37:53;;;;;;;16.58;0.60;;;23.70;38.70;;;;;;5097430;28;20048;-56
2022/04/08 01:40:21;;;;;;;8.95;2.05;;;23.80;38.80;;;;;;5101256;28;20168;-61
2022/04/08 01:42:49;;;;;;;12.02;1.02;;;23.70;38.70;;;;;;5100384;28;20044;-59
2022/04/08 01:45:16;;;;;;;16.05;1.25;;;23.70;38.80;;;;;;5097032;28;20054;-58
2022/04/08 01:47:43;;;;;;;12.13;1.02;;;23.70;38.80;;;;;;5096571;28;20580;-59
2022/04/08 01:50:13;;;;;;;12.95;0.63;;;23.70;38.80;;;;;;5100661;28;20526;-59
2022/04/08 01:52:41;;;;;;;15.77;1.20;;;23.70;38.70;;;;;;5101099;28;20040;-60
2022/04/08 01:55:08;;;;;;;7.97;0.57;;;23.70;38.70;;;;;;5098738;28;20126;-60
2022/04/08 01:57:35;;;;;;;7.88;0.63;;;23.70;38.60;;;;;;5093959;28;20066;-61
2022/04/08 02:00:05;;;;;;;5.70;0.35;;;23.70;38.60;;;;;;5096887;28;20413;-61
2022/04/08 02:02:39;;;;;;;9.60;0.25;;;23.70;38.60;;;;;;5100093;28;20155;-62
2022/04/08 02:05:08;;;;;;;5.63;0.28;;;23.70;38.60;;;;;;5082286;28;20545;-61
2022/04/08 02:07:36;;;;;;;4.63;0.57;;;23.70;38.60;;;;;;5095342;28;20071;-59
2022/04/08 02:10:03;;;;;;;5.57;1.20;;;23.70;38.50;;;;;;5098674;28;20487;-60
2022/04/08 02:12:31;;;;;;;2.80;1.15;;;23.70;38.50;;;;;;5098395;28;20048;-60
2022/04/08 02:14:58;;;;;;;5.25;0.10;;;23.60;39.00;;;;;;5094852;28;20495;-60
2022/04/08 02:17:28;;;;;;;5.95;0.82;;;23.60;38.40;;;;;;5093255;28;20044;-59
2022/04/08 02:19:56;;;;;;;6.75;0.15;;;23.60;38.40;;;;;;5097317;28;20039;-58
2022/04/08 02:22:24;;;;;;;3.08;0.40;;;23.60;38.40;;;;;;5095037;28;20046;-55
2022/04/08 02:24:52;;;;;;;3.70;1.27;;;23.60;38.30;;;;;;5098970;28;20048;-56
2022/04/08 02:27:22;;;;;;;7.70;0.25;;;23.60;38.40;;;;;;5093335;28;20043;-57
2022/04/08 02:29:49;;;;;;;5.75;1.58;;;23.60;38.40;;;;;;5099964;28;20043;-60
2022/04/08 02:32:17;;;;;;;5.05;0.60;;;23.60;38.40;;;;;;5092313;28;20032;-58
2022/04/08 02:34:45;;;;;;;2.30;0.82;;;23.60;38.40;;;;;;5101208;28;20060;-57
2022/04/08 02:37:12;;;;;;;6.63;0.30;;;23.50;38.30;;;;;;5096139;28;20044;-57
2022/04/08 02:39:40;;;;;;;2.25;0.10;;;23.50;39.00;;;;;;5098117;28;20126;-60
2022/04/08 02:42:07;;;;;;;5.40;0.60;;;23.50;38.50;;;;;;5095658;28;20036;-60
2022/04/08 02:44:34;;;;;;;3.45;0.25;;;23.50;38.60;;;;;;5092287;28;20135;-60
2022/04/08 02:47:01;;;;;;;10.15;0.75;;;23.50;38.50;;;;;;5094423;28;21653;-58
2022/04/08 02:49:29;;;;;;;3.30;0.10;;;23.50;38.50;;;;;;5095807;28;20160;-59
2022/04/08 02:51:58;;;;;;;2.15;0.10;;;23.50;38.60;;;;;;5096677;28;20050;-59
2022/04/08 02:54:26;;;;;;;4.57;0.10;;;23.50;38.60;;;;;;5096491;28;20039;-57
2022/04/08 02:56:53;;;;;;;1.10;0.15;;;23.50;38.60;;;;;;5092435;28;20035;-56
2022/04/08 02:59:20;;;;;;;2.85;0.20;;;23.50;38.60;;;;;;5092632;28;20035;-56
2022/04/08 03:01:48;;;;;;;3.85;1.35;;;23.40;38.50;;;;;;5098004;28;20907;-57
2022/04/08 03:04:15;;;;;;;3.42;0.60;;;23.40;38.50;;;;;;5097084;28;20058;-58
2022/04/08 03:06:42;;;;;;;2.38;0.40;;;23.40;38.50;;;;;;5089829;28;20059;-61
2022/04/08 03:09:11;;;;;;;9.38;0.40;;;23.50;38.50;;;;;;5096960;28;20122;-59
2022/04/08 03:11:38;;;;;;;4.20;0.95;;;23.50;38.60;;;;;;5098018;28;20116;-58
2022/04/08 03:14:05;;;;;;;2.30;1.08;;;23.40;38.50;;;;;;5094991;28;20032;-59
2022/04/08 03:16:33;;;;;;;1.90;0.15;;;23.40;38.50;;;;;;5095206;28;20129;-55
2022/04/08 03:19:01;;;;;;;3.88;0.40;;;23.40;38.60;;;;;;5095717;28;20047;-59
2022/04/08 03:21:30;;;;;;;3.28;0.30;;;23.40;38.50;;;;;;5098890;28;20109;-60
2022/04/08 03:23:57;;;;;;;3.22;0.38;;;23.40;38.50;;;;;;5096581;28;20257;-56
2022/04/08 03:26:26;;;;;;;1.35;1.25;;;23.40;38.60;;;;;;5095007;28;20124;-59
2022/04/08 03:28:53;;;;;;;1.48;0.10;;;23.40;38.60;;;;;;5094035;28;20046;-60
2022/04/08 03:31:21;;;;;;;2.58;0.20;;;23.40;38.70;;;;;;5078738;28;20741;-59
2022/04/08 03:33:48;;;;;;;1.30;0.00;;;23.40;38.80;;;;;;5095921;28;20579;-60
2022/04/08 03:36:15;;;;;;;1.20;0.20;;;23.40;39.00;;;;;;5099273;27;20088;-60
2022/04/08 03:38:42;;;;;;;1.10;0.28;;;23.40;39.10;;;;;;5099085;28;20050;-59
2022/04/08 03:41:09;;;;;;;0.90;0.10;;;23.30;39.20;;;;;;5096757;28;20047;-60
2022/04/08 03:43:38;;;;;;;2.90;0.30;;;23.30;39.30;;;;;;5102143;28;20040;-60
2022/04/08 03:46:05;;;;;;;1.88;0.10;;;23.30;39.50;;;;;;5099698;28;20040;-59
2022/04/08 03:48:32;;;;;;;1.67;0.20;;;23.30;39.60;;;;;;5093919;27;20040;-58
2022/04/08 03:50:59;;;;;;;0.63;0.30;;;23.30;39.60;;;;;;5100145;28;20048;-59
2022/04/08 03:53:26;;;;;;;1.60;0.05;;;23.30;39.70;;;;;;5102433;28;20031;-59
2022/04/08 03:55:53;;;;;;;0.80;0.10;;;23.20;39.70;;;;;;5099593;28;20068;-60
2022/04/08 03:58:20;;;;;;;2.75;0.30;;;23.30;39.90;;;;;;5093848;28;20412;-61
2022/04/08 04:00:49;;;;;;;3.13;0.13;;;23.30;40.00;;;;;;5102012;28;20052;-60
2022/04/08 04:03:16;;;;;;;1.48;0.08;;;23.20;40.10;;;;;;5085044;28;20039;-60
2022/04/08 04:05:44;;;;;;;0.77;0.20;;;23.20;40.20;;;;;;5100624;28;20079;-59
2022/04/08 04:08:15;;;;;;;3.92;0.22;;;23.20;40.40;;;;;;5093963;28;20090;-57
2022/04/08 04:10:42;;;;;;;1.75;0.10;;;23.20;40.50;;;;;;5101395;28;20048;-55
2022/04/08 04:13:09;;;;;;;5.30;0.10;;;23.20;40.60;;;;;;5096968;28;20056;-57
2022/04/08 04:15:37;;;;;;;0.15;0.00;;;23.10;40.60;;;;;;5096697;28;20159;-52
2022/04/08 04:18:06;;;;;;;8.52;0.38;;;23.10;40.70;;;;;;5094834;28;20032;-55
2022/04/08 04:20:33;;;;;;;0.57;0.57;;;23.10;41.40;;;;;;5097636;27;20074;-58
2022/04/08 04:23:01;;;;;;;3.55;0.22;;;23.10;40.80;;;;;;5080144;28;20040;-57
2022/04/08 04:25:28;;;;;;;1.08;0.10;;;23.10;40.80;;;;;;5100126;28;20044;-55
2022/04/08 04:27:56;;;;;;;0.60;0.10;;;23.10;40.80;;;;;;5097403;28;20095;-60
2022/04/08 04:30:26;;;;;;;2.63;0.03;;;23.10;40.80;;;;;;5099262;28;20109;-59
2022/04/08 04:32:56;;;;;;;3.83;0.10;;;23.10;40.90;;;;;;5097564;28;20044;-59
2022/04/08 04:35:25;;;;;;;0.98;0.22;;;23.10;41.00;;;;;;5081422;28;20067;-59
2022/04/08 04:37:52;;;;;;;2.65;0.30;;;23.10;41.00;;;;;;5096263;28;20154;-57
2022/04/08 04:40:20;;;;;;;1.95;0.35;;;23.10;41.00;;;;;;5102771;28;20108;-59
2022/04/08 04:42:47;;;;;;;0.20;0.00;;;23.10;41.00;;;;;;5097130;28;20047;-60
2022/04/08 04:45:14;;;;;;;1.80;0.10;;;23.10;41.00;;;;;;5100191;28;20039;-57
2022/04/08 04:47:41;;;;;;;1.40;0.43;;;23.10;41.10;;;;;;5093686;28;20064;-57
2022/04/08 04:50:09;;;;;;;0.55;0.13;;;23.00;41.10;;;;;;5098997;28;20036;-58
2022/04/08 04:52:38;;;;;;;0.98;0.10;;;23.00;41.10;;;;;;5102707;28;20040;-58
2022/04/08 04:55:06;;;;;;;0.30;0.10;;;23.00;41.10;;;;;;5099570;28;20054;-60
2022/04/08 04:57:34;;;;;;;2.72;0.30;;;23.00;41.10;;;;;;5092295;28;20040;-59
2022/04/08 05:00:02;;;;;;;2.65;0.30;;;23.00;41.20;;;;;;5098907;28;20138;-58
2022/04/08 05:02:29;;;;;;;0.73;0.10;;;23.00;41.20;;;;;;5099039;28;20536;-58
2022/04/08 05:04:56;;;;;;;3.03;0.10;;;23.00;41.20;;;;;;5093273;28;20046;-56
2022/04/08 05:07:25;;;;;;;0.45;0.30;;;23.00;41.20;;;;;;5096695;28;20135;-54
2022/04/08 05:09:53;;;;;;;2.58;0.80;;;23.00;41.30;;;;;;5098372;28;20051;-56
2022/04/08 05:12:21;;;;;;;0.68;0.40;;;23.00;41.30;;;;;;5095176;27;20047;-52
2022/04/08 05:14:48;;;;;;;0.77;0.03;;;23.00;41.30;;;;;;5095761;28;20070;-57
2022/04/08 05:17:15;;;;;;;0.10;0.00;;;23.00;41.30;;;;;;5093538;28;20036;-53
2022/04/08 05:19:42;;;;;;;1.63;0.10;;;23.00;41.40;;;;;;5100740;28;20109;-55
2022/04/08 05:22:10;;;;;;;3.80;0.10;;;23.00;41.50;;;;;;5097441;28;20054;-55
2022/04/08 05:24:37;;;;;;;0.43;0.10;;;23.00;41.40;;;;;;5095695;28;20064;-57
2022/04/08 05:27:06;;;;;;;0.57;0.40;;;23.00;41.40;;;;;;5093512;28;20648;-57
2022/04/08 05:29:33;;;;;;;4.03;0.50;;;23.00;41.40;;;;;;5097185;28;20840;-56
2022/04/08 05:32:01;;;;;;;0.57;0.03;;;22.90;41.50;;;;;;5099990;28;20123;-57
2022/04/08 05:34:28;;;;;;;1.00;0.10;;;22.90;41.40;;;;;;5100105;28;20112;-57
2022/04/08 05:36:55;;;;;;;0.30;0.10;;;22.90;41.30;;;;;;5094890;28;20131;-57
2022/04/08 05:39:22;;;;;;;3.28;0.10;;;22.90;41.30;;;;;;5092858;28;20051;-53
2022/04/08 05:41:49;;;;;;;0.85;0.10;;;22.90;41.30;;;;;;5101381;27;20040;-56
2022/04/08 05:44:18;;;;;;;6.15;0.20;;;22.90;41.40;;;;;;5099855;28;20746;-56
2022/04/08 05:46:45;;;;;;;1.95;0.17;;;22.90;41.40;;;;;;5094449;28;20055;-58
2022/04/08 05:49:12;;;;;;;4.55;0.22;;;22.90;41.40;;;;;;5099151;28;20043;-57
2022/04/08 05:51:39;;;;;;;0.50;0.20;;;22.90;41.50;;;;;;5097172;28;20040;-57
2022/04/08 05:54:06;;;;;;;1.20;0.10;;;22.90;41.60;;;;;;5097545;28;20055;-58
2022/04/08 05:56:33;;;;;;;3.45;0.10;;;22.90;41.60;;;;;;5092341;28;20139;-53
2022/04/08 05:59:00;;;;;;;2.33;0.10;;;22.90;41.60;;;;;;5097155;28;20595;-59
2022/04/08 06:01:29;;;;;;;1.52;0.10;;;22.90;41.60;;;;;;5099474;28;20116;-55
2022/04/08 06:03:57;;;;;;;0.50;0.10;;;22.90;41.70;;;;;;5098252;28;20078;-56
2022/04/08 06:06:24;;;;;;;1.27;0.47;;;22.90;41.80;;;;;;5096877;28;20047;-57
2022/04/08 06:08:51;;;;;;;3.10;0.20;;;22.90;41.80;;;;;;5095155;28;20045;-50
2022/04/08 06:11:19;;;;;;;2.67;0.10;;;22.90;41.80;;;;;;5096580;28;20565;-53
2022/04/08 06:13:46;;;;;;;0.50;0.10;;;22.90;41.90;;;;;;5096940;28;20054;-52
2022/04/08 06:16:13;;;;;;;0.40;0.10;;;22.90;41.80;;;;;;5099132;28;20120;-52
2022/04/08 06:18:42;;;;;;;9.50;0.52;;;22.80;41.80;;;;;;5093293;28;20046;-51
2022/04/08 06:21:09;;;;;;;1.85;0.20;;;22.90;42.10;;;;;;5096611;28;20085;-52
2022/04/08 06:23:36;;;;;;;1.90;0.10;;;23.10;42.20;;;;;;5096517;28;20050;-52
2022/04/08 06:26:03;;;;;;;1.85;0.20;;;23.30;41.90;;;;;;5096023;27;20131;-50
2022/04/08 06:28:31;;;;;;;3.53;0.32;;;23.40;41.60;;;;;;5075516;28;20056;-50
2022/04/08 06:30:58;;;;;;;5.43;0.10;;;23.60;41.30;;;;;;5097341;28;20097;-51
2022/04/08 06:33:25;;;;;;;1.60;0.10;;;23.70;41.10;;;;;;5096070;28;20031;-51
2022/04/08 06:35:54;;;;;;;5.07;0.50;;;23.80;40.90;;;;;;5098219;28;20052;-48
2022/04/08 06:38:21;;;;;;;4.45;0.30;;;23.90;40.70;;;;;;5092485;28;20039;-63
2022/04/08 06:40:48;;;;;;;0.45;0.25;;;24.00;40.70;;;;;;5099410;28;20051;-63
2022/04/08 06:43:15;;;;;;;1.75;0.43;;;24.10;40.60;;;;;;5095145;28;20563;-67
2022/04/08 06:45:43;;;;;;;3.30;0.45;;;24.20;40.50;;;;;;5098080;28;20085;-65
2022/04/08 06:48:11;;;;;;;3.05;0.20;;;24.20;40.40;;;;;;5092697;28;20096;-65
2022/04/08 06:50:38;;;;;;;7.30;1.05;;;24.30;40.40;;;;;;5091243;28;20040;-59
2022/04/08 06:53:07;;;;;;;1.77;0.13;;;24.30;40.40;;;;;;5094397;28;20051;-62
2022/04/08 06:55:34;;;;;;;1.90;0.32;;;24.40;40.40;;;;;;5097581;28;20071;-62
2022/04/08 06:58:03;;;;;;;2.53;0.70;;;24.40;40.30;;;;;;5090783;28;20052;-62
2022/04/08 07:00:32;;;;;;;7.85;0.30;;;24.60;40.20;;;;;;5095221;28;20078;-63
2022/04/08 07:02:59;;;;;;;2.85;0.90;;;24.60;40.00;;;;;;5096919;28;20040;-63
2022/04/08 07:05:28;;;;;;;2.75;0.32;;;24.70;39.80;;;;;;5095972;28;20048;-60
2022/04/08 07:07:56;;;;;;;0.77;0.57;;;24.70;39.60;;;;;;5092995;28;20449;-63
2022/04/08 07:10:24;;;;;;;1.83;0.10;;;24.80;39.40;;;;;;5099237;28;20043;-63
2022/04/08 07:12:52;;;;;;;0.65;0.17;;;24.90;39.40;;;;;;5095420;28;20035;-61
2022/04/08 07:15:19;;;;;;;2.35;0.45;;;25.00;39.30;;;;;;5096852;28;20048;-62
2022/04/08 07:17:47;;;;;;;2.25;1.05;;;25.00;39.10;;;;;;5091964;28;20032;-63
2022/04/08 07:20:14;;;;;;;2.33;0.22;;;25.10;39.10;;;;;;5097108;28;20043;-63
2022/04/08 07:22:42;;;;;;;2.28;0.28;;;25.10;39.00;;;;;;5099015;28;20507;-61
2022/04/08 07:25:10;;;;;;;1.90;0.77;;;25.20;38.90;;;;;;5095840;28;20699;-62
2022/04/08 07:27:46;;;;;;;2.47;0.38;;;25.20;38.90;;;;;;5091798;28;20036;-62
2022/04/08 07:30:14;;;;;;;2.55;0.77;;;25.30;38.80;;;;;;5095327;28;20085;-61
2022/04/08 07:32:42;;;;;;;3.42;0.60;;;25.30;38.70;;;;;;5095915;28;20036;-62
2022/04/08 07:35:10;;;;;;;2.88;0.43;;;25.30;38.70;;;;;;5099692;28;20120;-62
2022/04/08 07:37:38;;;;;;;2.65;0.28;;;25.30;38.70;;;;;;5095469;28;20101;-61
2022/04/08 07:40:07;;;;;;;4.28;0.20;;;25.40;38.70;;;;;;5093746;28;20492;-62
2022/04/08 07:42:34;;;;;;;2.38;0.75;;;25.40;38.60;;;;;;5098022;28;20043;-61
2022/04/08 07:45:03;;;;;;;0.77;0.20;;;25.40;38.60;;;;;;5094205;28;20048;-61
2022/04/08 07:47:31;;;;;;;1.48;0.30;;;25.40;38.60;;;;;;5072552;28;20051;-61
2022/04/08 07:49:58;;;;;;;1.67;0.20;;;25.50;38.60;;;;;;5092270;28;20206;-62
2022/04/08 07:52:26;;;;;;;1.50;0.50;;;25.50;38.60;;;;;;5097953;28;20088;-62
2022/04/08 07:54:54;;;;;;;1.92;0.28;;;25.50;38.50;;;;;;5095817;28;20042;-61
2022/04/08 07:57:21;;;;;;;1.75;0.30;;;25.50;38.50;;;;;;5091782;28;20043;-61
2022/04/08 07:59:48;;;;;;;2.33;0.47;;;25.60;38.50;;;;;;5090256;28;20751;-61
2022/04/08 08:02:17;;;;;;;1.25;0.40;;;25.60;38.50;;;;;;5094261;28;20040;-65
2022/04/08 08:04:44;;;;;;;2.30;0.70;;;25.60;38.40;;;;;;5098112;28;20043;-57
2022/04/08 08:07:12;;;;;;;0.85;0.45;;;25.60;38.50;;;;;;5094141;28;20117;-59
2022/04/08 08:09:40;;;;;;;4.47;0.88;;;25.60;38.50;;;;;;5075963;28;20490;-57
2022/04/08 08:12:08;;;;;;;1.52;0.65;;;25.60;38.50;;;;;;5094376;28;20046;-59
2022/04/08 08:14:35;;;;;;;2.13;0.20;;;25.60;38.40;;;;;;5094716;28;20039;-58
2022/04/08 08:17:02;;;;;;;1.67;0.40;;;25.60;38.40;;;;;;5092210;28;20044;-56
2022/04/08 08:19:31;;;;;;;2.47;0.38;;;25.70;38.40;;;;;;5094632;28;20156;-58
2022/04/08 08:21:58;;;;;;;0.43;0.20;;;25.70;38.40;;;;;;5094774;28;20062;-58
2022/04/08 08:24:25;;;;;;;0.73;0.40;;;25.70;38.40;;;;;;5097757;28;20047;-56
2022/04/08 08:26:53;;;;;;;1.02;0.30;;;25.70;38.30;;;;;;5093899;28;20061;-56
2022/04/08 08:29:20;;;;;;;2.53;1.27;;;25.70;38.20;;;;;;5096347;28;20785;-58
2022/04/08 08:31:47;;;;;;;0.95;0.20;;;25.70;38.20;;;;;;5099875;28;20046;-56
2022/04/08 08:34:14;;;;;;;0.68;0.68;;;25.70;38.10;;;;;;5100281;28;20051;-59
2022/04/08 08:36:43;;;;;;;1.02;0.10;;;25.70;38.10;;;;;;5094735;28;20044;-60
2022/04/08 08:39:10;;;;;;;1.50;0.40;;;25.70;38.20;;;;;;5096905;28;20036;-58
2022/04/08 08:41:38;;;;;;;2.20;0.20;;;25.70;38.20;;;;;;5096999;28;20051;-59
2022/04/08 08:44:06;;;;;;;3.40;0.30;;;25.70;38.20;;;;;;5080710;27;20866;-59
2022/04/08 08:46:35;;;;;;;2.47;0.13;;;25.70;38.10;;;;;;5096236;28;20043;-59
2022/04/08 08:49:03;;;;;;;0.68;0.15;;;25.70;38.10;;;;;;5096016;28;20062;-55
2022/04/08 08:51:36;;;;;;;1.88;0.10;;;25.70;38.10;;;;;;5098168;28;20058;-60
2022/04/08 08:54:04;;;;;;;0.88;0.30;;;25.70;38.10;;;;;;5097011;28;20114;-57
2022/04/08 08:56:33;;;;;;;2.63;0.45;;;25.70;38.10;;;;;;5093930;28;20067;-57
2022/04/08 08:59:00;;;;;;;0.30;0.30;;;25.70;38.10;;;;;;5095036;28;20052;-60
2022/04/08 09:01:27;;;;;;;1.85;0.25;;;25.60;38.10;;;;;;5100154;28;20047;-58
2022/04/08 09:03:54;;;;;;;1.67;0.20;;;25.60;38.10;;;;;;5081126;28;20047;-58
2022/04/08 09:06:22;;;;;;;1.33;0.35;;;25.60;38.20;;;;;;5096920;28;20136;-60
2022/04/08 09:08:56;;;;;;;1.27;0.30;;;25.60;38.20;;;;;;5094317;28;20063;-61
2022/04/08 09:11:29;;;;;;;3.33;0.65;;;25.60;38.20;;;;;;5096307;28;20044;-57
2022/04/08 09:14:03;;;;;;;1.90;0.20;;;25.60;38.50;;;;;;5097591;28;20039;-59
2022/04/08 09:16:35;;;;;;;0.77;0.30;;;25.60;38.60;;;;;;5096301;28;20139;-66
2022/04/08 09:19:11;;;;;;;3.30;0.20;;;25.50;38.60;;;;;;5096274;28;20047;-69
2022/04/08 09:21:39;;;;;;;0.70;0.22;;;25.60;38.70;;;;;;5097545;28;20047;-71
2022/04/08 09:24:07;;;;;;;2.95;0.52;;;25.50;38.60;;;;;;5096619;28;20415;-67
2022/04/08 09:26:39;;;;;;;1.10;0.10;;;25.60;38.60;;;;;;5096688;28;20061;-67
2022/04/08 09:29:06;;;;;;;0.88;0.20;;;25.60;38.70;;;;;;5094935;28;20044;-68
2022/04/08 09:31:34;;;;;;;2.45;0.20;;;25.60;38.60;;;;;;5099360;28;20048;-69
2022/04/08 09:34:01;;;;;;;1.75;0.10;;;25.60;38.60;;;;;;5099320;28;20040;-68
2022/04/08 09:36:31;;;;;;;2.53;0.38;;;25.60;38.60;;;;;;5097909;27;20048;-67
2022/04/08 09:38:59;;;;;;;1.73;0.45;;;25.60;38.60;;;;;;5094717;28;20526;-70
2022/04/08 09:41:39;;;;;;;0.95;0.10;;;25.60;38.50;;;;;;5099044;28;20130;-68
2022/04/08 09:44:08;;;;;;;1.40;0.20;;;25.70;38.50;;;;;;5095068;28;20446;-73
2022/04/08 09:46:37;;;;;;;0.63;0.17;;;25.60;38.50;;;;;;5096126;28;20757;-71
2022/04/08 09:49:06;;;;;;;3.35;0.10;;;25.60;38.60;;;;;;5096079;28;20044;-68
2022/04/08 09:51:37;;;;;;;0.52;0.20;;;25.60;38.60;;;;;;5098241;28;20044;-69
2022/04/08 09:54:06;;;;;;;0.30;0.10;;;25.60;38.60;;;;;;5097601;28;20074;-70
2022/04/08 09:56:36;;;;;;;0.65;0.20;;;25.60;38.60;;;;;;5091350;28;20618;-70
2022/04/08 09:59:10;;;;;;;12.00;0.20;;;25.60;38.60;;;;;;5095768;28;20100;-68
2022/04/08 10:01:39;;;;;;;2.45;0.20;;;25.60;38.50;;;;;;5102244;28;20050;-62
2022/04/08 10:04:08;;;;;;;4.28;0.10;;;25.60;38.70;;;;;;5100341;28;20071;-60
2022/04/08 10:06:36;;;;;;;0.20;0.10;;;25.60;38.80;;;;;;5097869;28;20071;-60
2022/04/08 10:09:05;;;;;;;0.88;0.35;;;25.50;38.90;;;;;;5096960;28;20035;-61
2022/04/08 10:11:44;;;;;;;17.27;0.28;;;25.40;39.00;;;;;;5098454;28;20035;-63
2022/04/08 10:14:31;;;;;;;4.70;0.10;;;25.30;39.00;;;;;;5104575;28;20036;-63
2022/04/08 10:16:59;;;;;;;3.45;0.20;;;25.20;38.90;;;;;;5094826;28;20040;-57
2022/04/08 10:19:26;;;;;;;4.13;0.10;;;25.00;39.00;;;;;;5092249;28;20041;-57
2022/04/08 10:21:55;;;;;;;0.70;0.10;;;24.90;39.20;;;;;;5095043;28;20150;-56
2022/04/08 10:24:24;;;;;;;0.77;0.20;;;24.80;39.20;;;;;;5095813;28;20077;-56
2022/04/08 10:27:01;;;;;;;1.50;0.25;;;24.60;39.40;;;;;;5101623;28;20044;-57
2022/04/08 10:29:31;;;;;;;2.08;0.10;;;24.50;39.60;;;;;;5088779;28;20044;-57
2022/04/08 10:32:00;;;;;;;2.65;0.28;;;24.40;40.40;;;;;;5098529;28;20512;-56
2022/04/08 10:34:28;;;;;;;1.80;0.52;;;24.30;39.90;;;;;;5092545;28;20527;-56
2022/04/08 10:36:56;;;;;;;1.10;0.13;;;24.10;40.20;;;;;;5093238;28;20123;-55
2022/04/08 10:39:24;;;;;;;2.22;0.20;;;24.00;40.30;;;;;;5096757;28;20713;-57
2022/04/08 10:41:53;;;;;;;0.22;0.20;;;24.00;40.50;;;;;;5091019;28;20048;-56
2022/04/08 10:44:33;;;;;;;3.55;0.10;;;23.90;40.70;;;;;;5091829;28;20040;-54
2022/04/08 10:47:03;;;;;;;0.52;0.13;;;23.80;40.90;;;;;;5090870;28;20048;-58
2022/04/08 10:49:31;;;;;;;2.42;0.20;;;23.70;41.00;;;;;;5096631;28;20036;-58
2022/04/08 10:51:58;;;;;;;2.38;0.45;;;23.60;41.00;;;;;;5090902;28;20048;-57
2022/04/08 10:54:36;;;;;;;1.50;0.20;;;23.50;41.20;;;;;;5094124;28;20050;-58
2022/04/08 10:57:03;;;;;;;0.95;0.13;;;23.40;41.40;;;;;;5096321;28;20389;-58
2022/04/08 10:59:32;;;;;;;2.75;0.57;;;23.30;41.50;;;;;;5092096;28;20044;-56
2022/04/08 11:02:02;;;;;;;1.52;0.10;;;23.30;41.60;;;;;;5103845;27;20116;-60
2022/04/08 11:04:30;;;;;;;0.90;0.10;;;23.20;41.70;;;;;;5091418;28;20052;-56
2022/04/08 11:07:05;;;;;;;1.63;0.60;;;23.20;41.80;;;;;;5099231;28;20058;-56
2022/04/08 11:09:33;;;;;;;0.10;0.10;;;23.10;41.90;;;;;;5090397;28;20700;-57
2022/04/08 11:12:01;;;;;;;3.38;0.13;;;23.10;42.00;;;;;;5091761;28;20060;-54
2022/04/08 11:14:29;;;;;;;0.13;0.10;;;23.00;42.00;;;;;;5090418;28;20370;-56
2022/04/08 11:16:58;;;;;;;1.33;0.10;;;22.90;42.10;;;;;;5088726;28;20047;-59
2022/04/08 11:19:25;;;;;;;0.77;0.10;;;22.90;42.20;;;;;;5093906;28;20119;-58
2022/04/08 11:21:52;;;;;;;3.42;0.95;;;22.80;42.30;;;;;;5095395;28;20101;-57
2022/04/08 11:24:19;;;;;;;0.98;0.65;;;22.80;42.40;;;;;;5090166;28;20663;-57
2022/04/08 11:26:48;;;;;;;1.50;0.20;;;22.80;42.50;;;;;;5089821;28;20048;-56
2022/04/08 11:29:17;;;;;;;1.90;0.10;;;22.80;42.60;;;;;;5091933;28;20454;-56
2022/04/08 11:31:45;;;;;;;0.80;0.10;;;22.70;42.60;;;;;;5102895;28;20043;-57
2022/04/08 11:34:15;;;;;;;0.13;0.10;;;22.60;42.60;;;;;;5097587;28;20109;-55
2022/04/08 11:36:43;;;;;;;0.47;0.08;;;22.70;42.70;;;;;;5077863;28;20486;-57
2022/04/08 11:39:19;;;;;;;1.23;0.38;;;22.60;42.70;;;;;;5095163;28;20495;-56
2022/04/08 11:41:53;;;;;;;0.20;0.08;;;22.60;42.80;;;;;;5075725;28;20070;-56
2022/04/08 11:44:20;;;;;;;1.15;0.10;;;22.60;42.80;;;;;;5085670;28;20040;-57
2022/04/08 11:46:47;;;;;;;0.63;0.10;;;22.60;42.90;;;;;;5094373;28;20041;-55
2022/04/08 11:49:18;;;;;;;0.73;0.10;;;22.60;42.90;;;;;;5088620;28;20084;-58
2022/04/08 11:51:45;;;;;;;0.10;0.10;;;22.50;42.90;;;;;;5089873;28;20623;-58
2022/04/08 11:54:12;;;;;;;0.30;0.10;;;22.50;42.90;;;;;;5088852;28;20147;-58
2022/04/08 11:56:48;;;;;;;0.57;0.10;;;22.40;43.00;;;;;;5097403;28;20131;-56
2022/04/08 11:59:16;;;;;;;0.35;0.10;;;22.50;43.10;;;;;;5089714;28;20127;-57
2022/04/08 12:01:43;;;;;;;1.80;0.30;;;22.40;43.10;;;;;;5105678;28;20101;-56
2022/04/08 12:04:13;;;;;;;0.30;0.10;;;22.40;43.20;;;;;;5098913;28;20125;-55
2022/04/08 12:06:42;;;;;;;0.47;0.10;;;22.30;43.10;;;;;;5096896;27;20056;-54
2022/04/08 12:09:10;;;;;;;0.73;0.10;;;22.30;43.30;;;;;;5098687;27;23512;-56
2022/04/08 12:11:39;;;;;;;0.57;0.10;;;22.20;43.20;;;;;;5094737;27;20065;-55
2022/04/08 12:14:09;;;;;;;1.25;0.10;;;22.30;43.40;;;;;;5101251;27;20213;-57
2022/04/08 12:16:37;;;;;;;0.32;0.10;;;22.20;43.40;;;;;;5099128;27;20835;-58
2022/04/08 12:19:06;;;;;;;0.45;0.10;;;22.20;43.40;;;;;;5099979;27;20040;-57
2022/04/08 12:21:34;;;;;;;1.05;0.10;;;22.20;43.40;;;;;;5087487;27;20055;-55
2022/04/08 12:24:04;;;;;;;0.10;0.10;;;22.20;43.50;;;;;;5097502;27;20406;-56
2022/04/08 12:26:34;;;;;;;1.25;0.28;;;22.20;43.40;;;;;;5090580;28;20048;-58
2022/04/08 12:29:09;;;;;;;0.77;0.10;;;22.20;43.50;;;;;;5099292;27;20064;-58
2022/04/08 12:31:45;;;;;;;0.10;0.10;;;22.20;43.50;;;;;;5106442;27;20674;-58
2022/04/08 12:34:14;;;;;;;0.20;0.10;;;22.20;43.50;;;;;;5098255;27;20094;-55
2022/04/08 12:36:41;;;;;;;0.15;0.10;;;22.20;43.50;;;;;;5102135;27;20502;-54
2022/04/08 12:39:11;;;;;;;1.75;0.10;;;22.20;43.50;;;;;;5095777;27;20040;-55
2022/04/08 12:41:41;;;;;;;0.20;0.10;;;22.20;43.50;;;;;;5091080;28;20140;-57
2022/04/08 12:44:09;;;;;;;0.32;0.10;;;22.20;43.60;;;;;;5095108;27;20072;-58
2022/04/08 12:46:36;;;;;;;0.10;0.00;;;22.10;43.50;;;;;;5104044;27;20044;-58
2022/04/08 12:49:04;;;;;;;1.00;0.10;;;22.10;43.50;;;;;;5097451;27;20573;-56
2022/04/08 12:51:32;;;;;;;0.30;0.08;;;22.10;43.60;;;;;;5099033;27;20043;-54